sensor_id;sensor_type;location;lat;lon;timestamp;P1;durP1;ratioP1;P2;durP2;ratioP2
3817;SDS011;1924;48.078;11.516;2022-12-18T00:01:56;21.20;;;0.80;;
3817;SDS011;1924;48.078;11.516;2022-12-18T00:04:23;21.20;;;0.80;;
3817;SDS011;1924;48.078;11.516;2022-12-18T00:06:51;21.00;;;0.80;;
3817;SDS011;1924;48.078;11.516;2022-12-18T00:09:18;21.10;;;0.80;;
3817;SDS011;1924;48.078;11.516;2022-12-18T00:11:45;21.10;;;0.80;;
3817;SDS011;1924;48.078;11.516;2022-12-18T00:14:13;21.17;;;0.80;;
3817;SDS011;1924;48.078;11.516;2022-12-18T00:16:42;21.10;;;0.80;;
3817;SDS011;1924;48.078;11.516;2022-12-18T00:19:10;21.10;;;0.80;;
3817;SDS011;1924;48.078;11.516;2022-12-18T00:21:37;21.10;;;0.80;;
3817;SDS011;1924;48.078;11.516;2022-12-18T00:24:04;21.00;;;0.80;;
3817;SDS011;1924;48.078;11.516;2022-12-18T00:26:32;21.10;;;0.80;;
3817;SDS011;1924;48.078;11.516;2022-12-18T00:29:02;21.00;;;0.80;;
3817;SDS011;1924;48.078;11.516;2022-12-18T00:31:32;21.20;;;0.80;;
3817;SDS011;1924;48.078;11.516;2022-12-18T00:33:59;21.07;;;0.80;;
3817;SDS011;1924;48.078;11.516;2022-12-18T00:36:29;21.20;;;0.80;;
3817;SDS011;1924;48.078;11.516;2022-12-18T00:38:57;21.07;;;0.80;;
3817;SDS011;1924;48.078;11.516;2022-12-18T00:41:25;21.13;;;0.80;;
3817;SDS011;1924;48.078;11.516;2022-12-18T00:44:10;21.13;;;0.80;;
3817;SDS011;1924;48.078;11.516;2022-12-18T00:46:40;21.23;;;0.80;;
3817;SDS011;1924;48.078;11.516;2022-12-18T00:49:07;21.00;;;0.80;;
3817;SDS011;1924;48.078;11.516;2022-12-18T00:51:34;21.03;;;0.80;;
3817;SDS011;1924;48.078;11.516;2022-12-18T00:54:01;21.07;;;0.80;;
3817;SDS011;1924;48.078;11.516;2022-12-18T00:56:28;21.07;;;0.80;;
3817;SDS011;1924;48.078;11.516;2022-12-18T00:58:54;21.07;;;0.80;;
3817;SDS011;1924;48.078;11.516;2022-12-18T01:01:21;21.03;;;0.80;;
3817;SDS011;1924;48.078;11.516;2022-12-18T01:03:49;21.03;;;0.80;;
3817;SDS011;1924;48.078;11.516;2022-12-18T01:06:16;21.00;;;0.80;;
3817;SDS011;1924;48.078;11.516;2022-12-18T01:08:43;21.00;;;0.80;;
3817;SDS011;1924;48.078;11.516;2022-12-18T01:11:11;20.97;;;0.80;;
3817;SDS011;1924;48.078;11.516;2022-12-18T01:13:39;21.00;;;0.80;;
3817;SDS011;1924;48.078;11.516;2022-12-18T01:16:06;21.10;;;0.80;;
3817;SDS011;1924;48.078;11.516;2022-12-18T01:18:33;21.07;;;0.80;;
3817;SDS011;1924;48.078;11.516;2022-12-18T01:21:02;21.00;;;0.80;;
3817;SDS011;1924;48.078;11.516;2022-12-18T01:23:32;20.90;;;0.80;;
3817;SDS011;1924;48.078;11.516;2022-12-18T01:26:03;21.13;;;0.80;;
3817;SDS011;1924;48.078;11.516;2022-12-18T01:28:30;21.10;;;0.80;;
3817;SDS011;1924;48.078;11.516;2022-12-18T01:30:57;21.03;;;0.80;;
3817;SDS011;1924;48.078;11.516;2022-12-18T01:33:34;21.00;;;0.80;;
3817;SDS011;1924;48.078;11.516;2022-12-18T01:36:02;20.97;;;0.80;;
3817;SDS011;1924;48.078;11.516;2022-12-18T01:38:30;20.93;;;0.80;;
3817;SDS011;1924;48.078;11.516;2022-12-18T01:40:57;21.00;;;0.80;;
3817;SDS011;1924;48.078;11.516;2022-12-18T05:00:28;20.80;;;0.80;;
3817;SDS011;1924;48.078;11.516;2022-12-18T05:02:55;20.87;;;0.80;;
3817;SDS011;1924;48.078;11.516;2022-12-18T05:05:21;20.90;;;0.80;;
3817;SDS011;1924;48.078;11.516;2022-12-18T05:07:48;20.93;;;0.80;;
3817;SDS011;1924;48.078;11.516;2022-12-18T05:10:15;20.87;;;0.80;;
3817;SDS011;1924;48.078;11.516;2022-12-18T05:12:42;20.83;;;0.80;;
3817;SDS011;1924;48.078;11.516;2022-12-18T05:15:35;20.77;;;0.73;;
3817;SDS011;1924;48.078;11.516;2022-12-18T05:18:02;20.80;;;0.80;;
3817;SDS011;1924;48.078;11.516;2022-12-18T05:20:30;20.60;;;0.80;;
3817;SDS011;1924;48.078;11.516;2022-12-18T05:22:57;20.70;;;0.80;;
3817;SDS011;1924;48.078;11.516;2022-12-18T05:25:24;20.67;;;0.70;;
3817;SDS011;1924;48.078;11.516;2022-12-18T05:27:51;20.80;;;0.77;;
3817;SDS011;1924;48.078;11.516;2022-12-18T05:30:18;20.83;;;0.70;;
3817;SDS011;1924;48.078;11.516;2022-12-18T05:32:46;20.90;;;0.80;;
3817;SDS011;1924;48.078;11.516;2022-12-18T05:35:12;20.60;;;0.80;;
3817;SDS011;1924;48.078;11.516;2022-12-18T05:37:39;20.80;;;0.73;;
3817;SDS011;1924;48.078;11.516;2022-12-18T05:40:07;20.70;;;0.80;;
3817;SDS011;1924;48.078;11.516;2022-12-18T05:42:34;20.80;;;0.80;;
3817;SDS011;1924;48.078;11.516;2022-12-18T05:45:01;20.80;;;0.77;;
3817;SDS011;1924;48.078;11.516;2022-12-18T05:47:28;20.70;;;0.80;;
3817;SDS011;1924;48.078;11.516;2022-12-18T05:49:56;21.00;;;0.80;;
3817;SDS011;1924;48.078;11.516;2022-12-18T05:52:23;20.87;;;0.80;;
3817;SDS011;1924;48.078;11.516;2022-12-18T05:54:52;21.00;;;0.80;;
3817;SDS011;1924;48.078;11.516;2022-12-18T05:57:18;20.90;;;0.80;;
3817;SDS011;1924;48.078;11.516;2022-12-18T05:59:45;21.07;;;0.80;;
3817;SDS011;1924;48.078;11.516;2022-12-18T06:02:12;21.07;;;0.80;;
3817;SDS011;1924;48.078;11.516;2022-12-18T06:04:39;21.00;;;0.80;;
3817;SDS011;1924;48.078;11.516;2022-12-18T06:07:07;21.07;;;0.80;;
3817;SDS011;1924;48.078;11.516;2022-12-18T06:09:34;20.93;;;0.80;;
3817;SDS011;1924;48.078;11.516;2022-12-18T06:12:00;20.77;;;0.80;;
3817;SDS011;1924;48.078;11.516;2022-12-18T06:14:27;20.80;;;0.80;;
3817;SDS011;1924;48.078;11.516;2022-12-18T06:16:54;20.80;;;0.80;;
3817;SDS011;1924;48.078;11.516;2022-12-18T06:19:21;20.87;;;0.80;;
3817;SDS011;1924;48.078;11.516;2022-12-18T06:21:47;20.87;;;0.80;;
3817;SDS011;1924;48.078;11.516;2022-12-18T06:24:17;20.70;;;0.80;;
3817;SDS011;1924;48.078;11.516;2022-12-18T06:26:43;20.80;;;0.87;;
3817;SDS011;1924;48.078;11.516;2022-12-18T06:29:10;20.80;;;0.80;;
3817;SDS011;1924;48.078;11.516;2022-12-18T06:31:37;20.70;;;0.80;;
3817;SDS011;1924;48.078;11.516;2022-12-18T06:34:04;20.77;;;0.77;;
3817;SDS011;1924;48.078;11.516;2022-12-18T06:36:31;20.67;;;0.80;;
3817;SDS011;1924;48.078;11.516;2022-12-18T06:38:58;20.80;;;0.70;;
3817;SDS011;1924;48.078;11.516;2022-12-18T06:41:26;20.70;;;0.80;;
3817;SDS011;1924;48.078;11.516;2022-12-18T06:43:53;20.80;;;0.80;;
3817;SDS011;1924;48.078;11.516;2022-12-18T06:46:20;20.70;;;0.80;;
3817;SDS011;1924;48.078;11.516;2022-12-18T06:48:47;20.70;;;0.80;;
3817;SDS011;1924;48.078;11.516;2022-12-18T06:51:16;20.70;;;0.80;;
3817;SDS011;1924;48.078;11.516;2022-12-18T06:53:44;20.60;;;0.80;;
3817;SDS011;1924;48.078;11.516;2022-12-18T06:56:11;20.83;;;0.80;;
3817;SDS011;1924;48.078;11.516;2022-12-18T06:58:39;20.70;;;0.80;;
3817;SDS011;1924;48.078;11.516;2022-12-18T07:01:07;20.80;;;0.80;;
3817;SDS011;1924;48.078;11.516;2022-12-18T07:03:35;20.67;;;0.80;;
3817;SDS011;1924;48.078;11.516;2022-12-18T07:06:03;20.77;;;0.80;;
3817;SDS011;1924;48.078;11.516;2022-12-18T07:08:30;20.63;;;0.70;;
3817;SDS011;1924;48.078;11.516;2022-12-18T07:10:57;20.60;;;0.80;;
3817;SDS011;1924;48.078;11.516;2022-12-18T07:13:24;20.60;;;0.70;;
3817;SDS011;1924;48.078;11.516;2022-12-18T07:15:53;20.77;;;0.70;;
3817;SDS011;1924;48.078;11.516;2022-12-18T07:18:20;20.70;;;0.80;;
3817;SDS011;1924;48.078;11.516;2022-12-18T07:20:46;20.70;;;0.80;;
3817;SDS011;1924;48.078;11.516;2022-12-18T07:23:13;20.63;;;0.80;;
3817;SDS011;1924;48.078;11.516;2022-12-18T07:25:40;21.13;;;0.80;;
3817;SDS011;1924;48.078;11.516;2022-12-18T07:28:07;20.70;;;0.73;;
3817;SDS011;1924;48.078;11.516;2022-12-18T07:30:34;20.70;;;0.80;;
3817;SDS011;1924;48.078;11.516;2022-12-18T07:33:04;20.77;;;0.70;;
3817;SDS011;1924;48.078;11.516;2022-12-18T07:35:32;20.73;;;0.70;;
3817;SDS011;1924;48.078;11.516;2022-12-18T07:38:01;20.73;;;0.80;;
3817;SDS011;1924;48.078;11.516;2022-12-18T07:40:28;20.77;;;0.80;;
3817;SDS011;1924;48.078;11.516;2022-12-18T07:42:56;20.67;;;0.73;;
3817;SDS011;1924;48.078;11.516;2022-12-18T07:45:23;20.73;;;0.80;;
3817;SDS011;1924;48.078;11.516;2022-12-18T07:47:50;20.60;;;0.80;;
3817;SDS011;1924;48.078;11.516;2022-12-18T07:50:18;20.70;;;0.80;;
3817;SDS011;1924;48.078;11.516;2022-12-18T07:52:45;20.73;;;0.80;;
3817;SDS011;1924;48.078;11.516;2022-12-18T07:55:11;20.83;;;0.80;;
3817;SDS011;1924;48.078;11.516;2022-12-18T07:57:38;20.70;;;0.80;;
3817;SDS011;1924;48.078;11.516;2022-12-18T08:00:06;20.83;;;0.80;;
3817;SDS011;1924;48.078;11.516;2022-12-18T08:02:33;20.70;;;0.80;;
3817;SDS011;1924;48.078;11.516;2022-12-18T08:05:00;20.67;;;0.80;;
3817;SDS011;1924;48.078;11.516;2022-12-18T08:07:28;20.50;;;0.80;;
3817;SDS011;1924;48.078;11.516;2022-12-18T08:09:54;20.57;;;0.80;;
3817;SDS011;1924;48.078;11.516;2022-12-18T08:12:21;20.53;;;0.80;;
3817;SDS011;1924;48.078;11.516;2022-12-18T08:14:48;20.67;;;0.80;;
3817;SDS011;1924;48.078;11.516;2022-12-18T08:17:15;20.60;;;0.80;;
3817;SDS011;1924;48.078;11.516;2022-12-18T08:19:42;20.60;;;0.80;;
3817;SDS011;1924;48.078;11.516;2022-12-18T08:22:09;20.37;;;0.73;;
3817;SDS011;1924;48.078;11.516;2022-12-18T08:24:37;20.40;;;0.70;;
3817;SDS011;1924;48.078;11.516;2022-12-18T08:27:04;20.47;;;0.80;;
3817;SDS011;1924;48.078;11.516;2022-12-18T08:29:30;20.53;;;0.80;;
3817;SDS011;1924;48.078;11.516;2022-12-18T08:31:58;20.47;;;0.70;;
3817;SDS011;1924;48.078;11.516;2022-12-18T08:34:25;20.63;;;0.80;;
3817;SDS011;1924;48.078;11.516;2022-12-18T08:36:52;20.60;;;0.70;;
3817;SDS011;1924;48.078;11.516;2022-12-18T08:39:19;20.40;;;0.70;;
3817;SDS011;1924;48.078;11.516;2022-12-18T08:41:47;20.50;;;0.70;;
3817;SDS011;1924;48.078;11.516;2022-12-18T08:44:28;20.50;;;0.77;;
3817;SDS011;1924;48.078;11.516;2022-12-18T08:47:04;20.50;;;0.70;;
3817;SDS011;1924;48.078;11.516;2022-12-18T08:49:31;20.53;;;0.70;;
3817;SDS011;1924;48.078;11.516;2022-12-18T08:51:58;20.43;;;0.80;;
3817;SDS011;1924;48.078;11.516;2022-12-18T08:54:25;20.40;;;0.80;;
3817;SDS011;1924;48.078;11.516;2022-12-18T08:56:53;20.73;;;0.80;;
3817;SDS011;1924;48.078;11.516;2022-12-18T08:59:20;20.70;;;0.80;;
3817;SDS011;1924;48.078;11.516;2022-12-18T09:01:48;20.77;;;0.80;;
3817;SDS011;1924;48.078;11.516;2022-12-18T09:04:15;20.70;;;0.80;;
3817;SDS011;1924;48.078;11.516;2022-12-18T09:06:41;20.83;;;0.80;;
3817;SDS011;1924;48.078;11.516;2022-12-18T09:09:08;20.77;;;0.80;;
3817;SDS011;1924;48.078;11.516;2022-12-18T09:11:36;20.87;;;0.80;;
3817;SDS011;1924;48.078;11.516;2022-12-18T09:14:04;20.90;;;0.80;;
3817;SDS011;1924;48.078;11.516;2022-12-18T09:16:31;20.83;;;0.80;;
3817;SDS011;1924;48.078;11.516;2022-12-18T09:19:00;20.90;;;0.80;;
3817;SDS011;1924;48.078;11.516;2022-12-18T09:21:28;21.00;;;0.80;;
3817;SDS011;1924;48.078;11.516;2022-12-18T09:23:56;20.87;;;0.80;;
3817;SDS011;1924;48.078;11.516;2022-12-18T09:26:23;20.80;;;0.80;;
3817;SDS011;1924;48.078;11.516;2022-12-18T09:28:52;20.77;;;0.80;;
3817;SDS011;1924;48.078;11.516;2022-12-18T09:31:20;20.73;;;0.80;;
3817;SDS011;1924;48.078;11.516;2022-12-18T09:33:48;20.80;;;0.80;;
3817;SDS011;1924;48.078;11.516;2022-12-18T09:36:15;20.40;;;0.80;;
3817;SDS011;1924;48.078;11.516;2022-12-18T09:38:43;20.63;;;0.80;;
3817;SDS011;1924;48.078;11.516;2022-12-18T09:41:15;20.63;;;0.80;;
3817;SDS011;1924;48.078;11.516;2022-12-18T09:44:00;20.67;;;0.80;;
3817;SDS011;1924;48.078;11.516;2022-12-18T09:46:30;20.63;;;0.73;;
3817;SDS011;1924;48.078;11.516;2022-12-18T09:49:02;20.80;;;0.77;;
3817;SDS011;1924;48.078;11.516;2022-12-18T09:51:33;20.70;;;0.80;;
3817;SDS011;1924;48.078;11.516;2022-12-18T09:54:04;20.80;;;0.80;;
3817;SDS011;1924;48.078;11.516;2022-12-18T09:56:34;20.73;;;0.70;;
3817;SDS011;1924;48.078;11.516;2022-12-18T09:59:04;20.83;;;0.80;;
3817;SDS011;1924;48.078;11.516;2022-12-18T10:01:32;20.80;;;0.70;;
3817;SDS011;1924;48.078;11.516;2022-12-18T10:03:59;20.60;;;0.73;;
3817;SDS011;1924;48.078;11.516;2022-12-18T10:06:27;20.60;;;0.80;;
3817;SDS011;1924;48.078;11.516;2022-12-18T10:09:02;20.70;;;0.80;;
3817;SDS011;1924;48.078;11.516;2022-12-18T10:11:39;20.63;;;0.80;;
3817;SDS011;1924;48.078;11.516;2022-12-18T10:14:13;20.50;;;0.80;;
3817;SDS011;1924;48.078;11.516;2022-12-18T10:16:51;20.67;;;0.80;;
3817;SDS011;1924;48.078;11.516;2022-12-18T10:19:30;20.60;;;0.70;;
3817;SDS011;1924;48.078;11.516;2022-12-18T10:22:09;20.57;;;0.80;;
3817;SDS011;1924;48.078;11.516;2022-12-18T10:24:42;20.50;;;0.80;;
3817;SDS011;1924;48.078;11.516;2022-12-18T10:27:15;20.40;;;0.70;;
3817;SDS011;1924;48.078;11.516;2022-12-18T10:29:43;20.60;;;0.80;;
3817;SDS011;1924;48.078;11.516;2022-12-18T10:32:14;20.57;;;0.70;;
3817;SDS011;1924;48.078;11.516;2022-12-18T10:34:46;20.50;;;0.70;;
3817;SDS011;1924;48.078;11.516;2022-12-18T10:37:15;20.60;;;0.70;;
3817;SDS011;1924;48.078;11.516;2022-12-18T10:39:43;20.57;;;0.70;;
3817;SDS011;1924;48.078;11.516;2022-12-18T10:42:11;20.50;;;0.70;;
3817;SDS011;1924;48.078;11.516;2022-12-18T10:44:42;20.57;;;0.80;;
3817;SDS011;1924;48.078;11.516;2022-12-18T10:47:11;20.70;;;0.77;;
3817;SDS011;1924;48.078;11.516;2022-12-18T10:49:42;20.70;;;0.70;;
3817;SDS011;1924;48.078;11.516;2022-12-18T10:52:15;20.70;;;0.70;;
3817;SDS011;1924;48.078;11.516;2022-12-18T10:54:46;20.63;;;0.70;;
3817;SDS011;1924;48.078;11.516;2022-12-18T10:57:20;20.57;;;0.70;;
3817;SDS011;1924;48.078;11.516;2022-12-18T11:00:01;20.57;;;0.70;;
3817;SDS011;1924;48.078;11.516;2022-12-18T11:02:47;20.60;;;0.70;;
3817;SDS011;1924;48.078;11.516;2022-12-18T11:05:24;20.53;;;0.70;;
3817;SDS011;1924;48.078;11.516;2022-12-18T11:07:53;20.50;;;0.70;;
3817;SDS011;1924;48.078;11.516;2022-12-18T11:10:21;20.40;;;0.77;;
3817;SDS011;1924;48.078;11.516;2022-12-18T11:12:49;20.43;;;0.70;;
3817;SDS011;1924;48.078;11.516;2022-12-18T11:15:16;20.40;;;0.70;;
3817;SDS011;1924;48.078;11.516;2022-12-18T11:17:49;20.47;;;0.70;;
3817;SDS011;1924;48.078;11.516;2022-12-18T11:20:21;20.60;;;0.80;;
3817;SDS011;1924;48.078;11.516;2022-12-18T11:22:58;20.57;;;0.80;;
3817;SDS011;1924;48.078;11.516;2022-12-18T11:25:29;20.50;;;0.80;;
3817;SDS011;1924;48.078;11.516;2022-12-18T11:27:58;20.53;;;0.80;;
3817;SDS011;1924;48.078;11.516;2022-12-18T11:30:29;20.60;;;0.80;;
3817;SDS011;1924;48.078;11.516;2022-12-18T11:33:00;20.67;;;0.80;;
3817;SDS011;1924;48.078;11.516;2022-12-18T11:35:35;20.67;;;0.80;;
3817;SDS011;1924;48.078;11.516;2022-12-18T11:38:10;20.40;;;0.80;;
3817;SDS011;1924;48.078;11.516;2022-12-18T11:40:43;20.57;;;0.80;;
3817;SDS011;1924;48.078;11.516;2022-12-18T11:43:16;20.50;;;0.80;;
3817;SDS011;1924;48.078;11.516;2022-12-18T11:45:49;20.47;;;0.80;;
3817;SDS011;1924;48.078;11.516;2022-12-18T11:48:22;20.53;;;0.70;;
3817;SDS011;1924;48.078;11.516;2022-12-18T11:50:53;20.63;;;0.73;;
3817;SDS011;1924;48.078;11.516;2022-12-18T11:53:21;20.57;;;0.80;;
3817;SDS011;1924;48.078;11.516;2022-12-18T11:55:55;20.40;;;0.70;;
3817;SDS011;1924;48.078;11.516;2022-12-18T11:58:40;20.60;;;0.70;;
3817;SDS011;1924;48.078;11.516;2022-12-18T12:01:14;20.70;;;0.70;;
3817;SDS011;1924;48.078;11.516;2022-12-18T12:06:54;20.77;;;0.70;;
3817;SDS011;1924;48.078;11.516;2022-12-18T12:09:28;20.80;;;0.70;;
3817;SDS011;1924;48.078;11.516;2022-12-18T12:12:09;20.70;;;0.70;;
3817;SDS011;1924;48.078;11.516;2022-12-18T12:14:47;20.80;;;0.70;;
3817;SDS011;1924;48.078;11.516;2022-12-18T12:17:22;20.87;;;0.73;;
3817;SDS011;1924;48.078;11.516;2022-12-18T12:20:06;20.77;;;0.73;;
3817;SDS011;1924;48.078;11.516;2022-12-18T12:22:40;20.90;;;0.70;;
3817;SDS011;1924;48.078;11.516;2022-12-18T12:25:19;20.70;;;0.70;;
3817;SDS011;1924;48.078;11.516;2022-12-18T12:27:57;20.63;;;0.80;;
3817;SDS011;1924;48.078;11.516;2022-12-18T12:30:35;20.70;;;0.80;;
3817;SDS011;1924;48.078;11.516;2022-12-18T12:33:14;20.63;;;0.80;;
3817;SDS011;1924;48.078;11.516;2022-12-18T12:35:53;20.60;;;0.73;;
3817;SDS011;1924;48.078;11.516;2022-12-18T12:38:28;20.60;;;0.70;;
3817;SDS011;1924;48.078;11.516;2022-12-18T12:41:02;20.40;;;0.77;;
3817;SDS011;1924;48.078;11.516;2022-12-18T12:43:52;20.30;;;0.70;;
3817;SDS011;1924;48.078;11.516;2022-12-18T12:46:21;20.43;;;0.80;;
3817;SDS011;1924;48.078;11.516;2022-12-18T12:48:49;20.57;;;0.70;;
3817;SDS011;1924;48.078;11.516;2022-12-18T12:51:20;20.33;;;0.80;;
3817;SDS011;1924;48.078;11.516;2022-12-18T12:53:49;20.60;;;0.70;;
3817;SDS011;1924;48.078;11.516;2022-12-18T12:56:20;20.50;;;0.80;;
3817;SDS011;1924;48.078;11.516;2022-12-18T12:58:55;20.60;;;0.80;;
3817;SDS011;1924;48.078;11.516;2022-12-18T13:01:28;20.43;;;0.80;;
3817;SDS011;1924;48.078;11.516;2022-12-18T13:04:08;20.63;;;0.80;;
3817;SDS011;1924;48.078;11.516;2022-12-18T13:06:44;20.60;;;0.80;;
3817;SDS011;1924;48.078;11.516;2022-12-18T13:09:16;20.57;;;0.80;;
3817;SDS011;1924;48.078;11.516;2022-12-18T13:11:46;20.47;;;0.80;;
3817;SDS011;1924;48.078;11.516;2022-12-18T13:14:31;20.53;;;0.80;;
3817;SDS011;1924;48.078;11.516;2022-12-18T13:17:14;20.47;;;0.80;;
3817;SDS011;1924;48.078;11.516;2022-12-18T13:20:09;20.60;;;0.80;;
3817;SDS011;1924;48.078;11.516;2022-12-18T13:22:40;20.53;;;0.80;;
3817;SDS011;1924;48.078;11.516;2022-12-18T13:28:00;20.53;;;0.80;;
3817;SDS011;1924;48.078;11.516;2022-12-18T13:30:42;20.47;;;0.80;;
3817;SDS011;1924;48.078;11.516;2022-12-18T13:33:34;20.57;;;0.80;;
3817;SDS011;1924;48.078;11.516;2022-12-18T13:36:25;20.50;;;0.80;;
3817;SDS011;1924;48.078;11.516;2022-12-18T13:39:10;20.60;;;0.80;;
3817;SDS011;1924;48.078;11.516;2022-12-18T13:41:47;20.57;;;0.80;;
3817;SDS011;1924;48.078;11.516;2022-12-18T13:44:21;20.50;;;0.70;;
3817;SDS011;1924;48.078;11.516;2022-12-18T13:46:53;20.40;;;0.80;;
3817;SDS011;1924;48.078;11.516;2022-12-18T13:49:21;20.47;;;0.80;;
3817;SDS011;1924;48.078;11.516;2022-12-18T13:51:51;20.40;;;0.80;;
3817;SDS011;1924;48.078;11.516;2022-12-18T13:54:22;20.40;;;0.70;;
3817;SDS011;1924;48.078;11.516;2022-12-18T13:56:54;20.47;;;0.80;;
3817;SDS011;1924;48.078;11.516;2022-12-18T13:59:22;20.40;;;0.80;;
3817;SDS011;1924;48.078;11.516;2022-12-18T14:01:51;20.50;;;0.80;;
3817;SDS011;1924;48.078;11.516;2022-12-18T14:04:21;20.53;;;0.70;;
3817;SDS011;1924;48.078;11.516;2022-12-18T14:06:51;20.53;;;0.70;;
3817;SDS011;1924;48.078;11.516;2022-12-18T14:09:23;20.47;;;0.70;;
3817;SDS011;1924;48.078;11.516;2022-12-18T14:11:52;20.40;;;0.70;;
3817;SDS011;1924;48.078;11.516;2022-12-18T14:14:41;20.43;;;0.70;;
3817;SDS011;1924;48.078;11.516;2022-12-18T14:17:11;20.57;;;0.70;;
3817;SDS011;1924;48.078;11.516;2022-12-18T14:19:40;20.37;;;0.80;;
3817;SDS011;1924;48.078;11.516;2022-12-18T14:22:12;20.40;;;0.80;;
3817;SDS011;1924;48.078;11.516;2022-12-18T14:24:43;20.37;;;0.70;;
3817;SDS011;1924;48.078;11.516;2022-12-18T14:27:21;20.30;;;0.80;;
3817;SDS011;1924;48.078;11.516;2022-12-18T14:29:49;20.40;;;0.70;;
3817;SDS011;1924;48.078;11.516;2022-12-18T14:32:17;20.33;;;0.70;;
3817;SDS011;1924;48.078;11.516;2022-12-18T14:34:45;20.37;;;0.70;;
3817;SDS011;1924;48.078;11.516;2022-12-18T14:37:13;20.50;;;0.70;;
3817;SDS011;1924;48.078;11.516;2022-12-18T14:39:53;20.40;;;0.80;;
3817;SDS011;1924;48.078;11.516;2022-12-18T14:42:22;20.50;;;0.80;;
3817;SDS011;1924;48.078;11.516;2022-12-18T14:44:52;20.33;;;0.70;;
3817;SDS011;1924;48.078;11.516;2022-12-18T14:48:05;20.47;;;0.70;;
3817;SDS011;1924;48.078;11.516;2022-12-18T14:50:33;20.47;;;0.80;;
3817;SDS011;1924;48.078;11.516;2022-12-18T14:53:00;20.40;;;0.80;;
3817;SDS011;1924;48.078;11.516;2022-12-18T14:55:28;20.37;;;0.70;;
3817;SDS011;1924;48.078;11.516;2022-12-18T14:57:55;20.50;;;0.70;;
3817;SDS011;1924;48.078;11.516;2022-12-18T15:00:23;20.40;;;0.80;;
3817;SDS011;1924;48.078;11.516;2022-12-18T15:02:52;20.30;;;0.70;;
3817;SDS011;1924;48.078;11.516;2022-12-18T15:05:24;20.37;;;0.70;;
3817;SDS011;1924;48.078;11.516;2022-12-18T15:07:53;20.30;;;0.70;;
3817;SDS011;1924;48.078;11.516;2022-12-18T15:10:21;20.40;;;0.80;;
3817;SDS011;1924;48.078;11.516;2022-12-18T15:13:05;20.50;;;0.80;;
3817;SDS011;1924;48.078;11.516;2022-12-18T15:15:49;20.37;;;0.70;;
3817;SDS011;1924;48.078;11.516;2022-12-18T15:18:18;20.37;;;0.73;;
3817;SDS011;1924;48.078;11.516;2022-12-18T15:20:48;20.33;;;0.80;;
3817;SDS011;1924;48.078;11.516;2022-12-18T15:23:16;20.47;;;0.70;;
3817;SDS011;1924;48.078;11.516;2022-12-18T15:25:45;20.33;;;0.70;;
3817;SDS011;1924;48.078;11.516;2022-12-18T15:28:17;20.37;;;0.80;;
3817;SDS011;1924;48.078;11.516;2022-12-18T15:34:00;20.33;;;0.80;;
3817;SDS011;1924;48.078;11.516;2022-12-18T15:36:32;20.50;;;0.80;;
3817;SDS011;1924;48.078;11.516;2022-12-18T15:39:01;20.10;;;0.77;;
3817;SDS011;1924;48.078;11.516;2022-12-18T15:41:30;20.40;;;0.80;;
3817;SDS011;1924;48.078;11.516;2022-12-18T15:44:00;20.27;;;0.70;;
3817;SDS011;1924;48.078;11.516;2022-12-18T15:46:26;20.30;;;0.80;;
3817;SDS011;1924;48.078;11.516;2022-12-18T15:48:53;20.40;;;0.70;;
3817;SDS011;1924;48.078;11.516;2022-12-18T15:51:22;20.40;;;0.77;;
3817;SDS011;1924;48.078;11.516;2022-12-18T15:53:52;20.37;;;0.70;;
3817;SDS011;1924;48.078;11.516;2022-12-18T15:56:21;20.33;;;0.70;;
3817;SDS011;1924;48.078;11.516;2022-12-18T15:59:16;20.37;;;0.70;;
3817;SDS011;1924;48.078;11.516;2022-12-18T16:01:45;20.40;;;0.70;;
3817;SDS011;1924;48.078;11.516;2022-12-18T16:04:13;20.43;;;0.70;;
3817;SDS011;1924;48.078;11.516;2022-12-18T16:06:41;20.47;;;0.70;;
3817;SDS011;1924;48.078;11.516;2022-12-18T16:09:09;20.30;;;0.77;;
3817;SDS011;1924;48.078;11.516;2022-12-18T16:11:36;20.30;;;0.70;;
3817;SDS011;1924;48.078;11.516;2022-12-18T16:14:06;20.60;;;0.80;;
3817;SDS011;1924;48.078;11.516;2022-12-18T16:16:43;20.60;;;0.80;;
3817;SDS011;1924;48.078;11.516;2022-12-18T16:19:10;20.50;;;0.80;;
3817;SDS011;1924;48.078;11.516;2022-12-18T16:21:37;20.67;;;0.80;;
3817;SDS011;1924;48.078;11.516;2022-12-18T16:24:04;20.60;;;0.80;;
3817;SDS011;1924;48.078;11.516;2022-12-18T16:26:31;20.67;;;0.80;;
3817;SDS011;1924;48.078;11.516;2022-12-18T16:28:58;20.57;;;0.80;;
3817;SDS011;1924;48.078;11.516;2022-12-18T16:31:24;20.50;;;0.80;;
3817;SDS011;1924;48.078;11.516;2022-12-18T16:36:37;20.40;;;0.80;;
3817;SDS011;1924;48.078;11.516;2022-12-18T16:39:04;20.37;;;0.80;;
3817;SDS011;1924;48.078;11.516;2022-12-18T16:41:31;20.47;;;0.73;;
3817;SDS011;1924;48.078;11.516;2022-12-18T16:43:58;20.30;;;0.80;;
3817;SDS011;1924;48.078;11.516;2022-12-18T16:46:25;20.47;;;0.77;;
3817;SDS011;1924;48.078;11.516;2022-12-18T16:48:52;20.27;;;0.80;;
3817;SDS011;1924;48.078;11.516;2022-12-18T16:51:20;20.33;;;0.80;;
3817;SDS011;1924;48.078;11.516;2022-12-18T16:53:47;20.30;;;0.70;;
3817;SDS011;1924;48.078;11.516;2022-12-18T16:56:13;20.50;;;0.70;;
3817;SDS011;1924;48.078;11.516;2022-12-18T16:58:40;20.50;;;0.77;;
3817;SDS011;1924;48.078;11.516;2022-12-18T17:01:07;20.40;;;0.70;;
3817;SDS011;1924;48.078;11.516;2022-12-18T17:03:34;20.40;;;0.70;;
3817;SDS011;1924;48.078;11.516;2022-12-18T17:06:01;20.23;;;0.80;;
3817;SDS011;1924;48.078;11.516;2022-12-18T17:08:30;20.10;;;0.70;;
3817;SDS011;1924;48.078;11.516;2022-12-18T17:11:02;20.37;;;0.77;;
3817;SDS011;1924;48.078;11.516;2022-12-18T17:13:29;20.40;;;0.80;;
3817;SDS011;1924;48.078;11.516;2022-12-18T17:16:00;20.33;;;0.73;;
3817;SDS011;1924;48.078;11.516;2022-12-18T17:18:27;20.30;;;0.70;;
3817;SDS011;1924;48.078;11.516;2022-12-18T17:20:57;20.37;;;0.70;;
3817;SDS011;1924;48.078;11.516;2022-12-18T17:23:24;20.20;;;0.70;;
3817;SDS011;1924;48.078;11.516;2022-12-18T17:25:54;20.20;;;0.70;;
3817;SDS011;1924;48.078;11.516;2022-12-18T17:28:22;20.37;;;0.70;;
3817;SDS011;1924;48.078;11.516;2022-12-18T17:30:49;20.30;;;0.70;;
3817;SDS011;1924;48.078;11.516;2022-12-18T17:33:16;20.43;;;0.70;;
3817;SDS011;1924;48.078;11.516;2022-12-18T17:35:43;20.27;;;0.70;;
3817;SDS011;1924;48.078;11.516;2022-12-18T17:38:10;20.23;;;0.70;;
3817;SDS011;1924;48.078;11.516;2022-12-18T17:40:37;20.43;;;0.70;;
3817;SDS011;1924;48.078;11.516;2022-12-18T17:43:06;20.30;;;0.70;;
3817;SDS011;1924;48.078;11.516;2022-12-18T17:45:34;20.23;;;0.70;;
3817;SDS011;1924;48.078;11.516;2022-12-18T17:48:01;20.30;;;0.70;;
3817;SDS011;1924;48.078;11.516;2022-12-18T17:50:28;20.17;;;0.70;;
3817;SDS011;1924;48.078;11.516;2022-12-18T17:52:55;20.33;;;0.70;;
3817;SDS011;1924;48.078;11.516;2022-12-18T17:55:21;20.37;;;0.80;;
3817;SDS011;1924;48.078;11.516;2022-12-18T17:57:48;20.37;;;0.73;;
3817;SDS011;1924;48.078;11.516;2022-12-18T18:00:17;20.30;;;0.80;;
3817;SDS011;1924;48.078;11.516;2022-12-18T18:02:45;20.43;;;0.70;;
3817;SDS011;1924;48.078;11.516;2022-12-18T18:05:12;20.30;;;0.73;;
3817;SDS011;1924;48.078;11.516;2022-12-18T18:07:39;20.37;;;0.70;;
3817;SDS011;1924;48.078;11.516;2022-12-18T18:10:06;20.10;;;0.70;;
3817;SDS011;1924;48.078;11.516;2022-12-18T18:12:35;20.40;;;0.80;;
3817;SDS011;1924;48.078;11.516;2022-12-18T18:15:21;20.40;;;0.77;;
3817;SDS011;1924;48.078;11.516;2022-12-18T18:17:47;20.10;;;0.70;;
3817;SDS011;1924;48.078;11.516;2022-12-18T18:20:14;20.23;;;0.70;;
3817;SDS011;1924;48.078;11.516;2022-12-18T18:22:41;20.47;;;0.70;;
3817;SDS011;1924;48.078;11.516;2022-12-18T18:25:08;20.27;;;0.80;;
3817;SDS011;1924;48.078;11.516;2022-12-18T18:27:37;20.33;;;0.80;;
3817;SDS011;1924;48.078;11.516;2022-12-18T18:30:04;20.30;;;0.80;;
3817;SDS011;1924;48.078;11.516;2022-12-18T18:32:33;20.30;;;0.80;;
3817;SDS011;1924;48.078;11.516;2022-12-18T18:35:06;20.27;;;0.70;;